Southwest Florida International Airport
KRSW : now visible

Airfield :











YOU CAN JOIN US ON...

 
LOGIN :

Register | Disclaimer

   EN    FR    IT 

 









Legend :    VFR   Marginal VFR   IFR   Intensive IFR   Very Intensive IFR
Visi :
Ceiling :
>= 8 km
>= 3000ft
5 to 8 km
1000 to 3000 ft
1500m to 5 km
500 to 1000 ft
800 to 1500m
200 to 500 ft
< 800m
< 200 ft
Symbols :   Thunderstorms  Fog  Heavy snow  Heavy precipitations  Wind > 20 kt






- Airport Elevation : 30 ft
- IATA code : RSW


KRSW - Southwest Florida International

CURRENT METAR :
  • 281153Z 03004KT 10SM BKN007 BKN070 OVC085 24/23 A3002 RMK AO2 CIG 005V011 SLP164 T02390233 10244 20233 52013

EXPIRED METARs :
  • 281142Z 00000KT 10SM SCT007 BKN070 OVC085 24/23 A3002 RMK AO2 T02390233
  • 281053Z 00000KT 10SM FEW014 BKN060 OVC070 24/23 A3000 RMK AO2 SLP158 T02390233
  • 281030Z AUTO 32003KT 10SM FEW006 BKN015 OVC070 24/23 A2999 RMK AO2 T02390233
  • 281012Z AUTO 21003KT 8SM FEW008 FEW015 BKN065 24/24 A2999 RMK AO2 T02390239
  • 281003Z AUTO 21003KT 8SM FEW011 SCT018 BKN060 24/24 A2999 RMK AO2 T02390239
  • 280953Z AUTO 20005KT 8SM BKN014 BKN021 OVC060 24/24 A2999 RMK AO2 SLP151 T02390239
  • 280929Z AUTO 21004KT 9SM FEW008 BKN014 BKN022 24/24 A2999 RMK AO2 T02440239

TAF KRSW
Valid from the 28 at 12:00 until the 29 at 12:00 UTC


281143Z 2812/2912 VRB03KT P6SM SCT012 BKN060
TEMPO 2812/2814 BKN012
FM281400 02004KT P6SM BKN015 BKN090
FM281700 34006KT P6SM SCT030 BKN070
FM282200 03005KT P6SM SCT050 BKN250
FM290000 VRB03KT P6SM SCT250
KZMA FIR / North America



MET'MAP, your aeronautical weather chart ! - Copyright ORBIFLY December 2007 - Disclaimer

ORBIFLY MET'MAP TEAM :

Programming & Development : Alexandra Zaïnal
Original concept : Baudouin d'Aumeries
Technical & hardware support : Manuel Goepfert
Assistance : Marc-Olivier Méhu




SOURCES & CREDITS :

   NOAA       Earth
Advisory